Avondale, CO

8:33 AM MDT on April 28, 2015 (GMT -0600)
La Junta Municipal | | Change Station
CLOSE
Current Station
Airport
Location: La Junta,
Elevation: 4239 ft
Nearby Weather Stations

Elev 4239 ft 38.05 °N, 103.51 °W | Updated 40 minutes ago

Clear
Clear
50 °F
Feels Like 50 °F
N
15
Wind Variable Wind from North

Today
High -- | Low -- °F
--% Chance of Precip.
Yesterday
High -- | Low -- °F
Precip. -- in
6:05 AM 7:45 PM
Waxing Gibbous, 74% visible
Pressure 30.26 in
Visibility 10.0 miles
Clouds Overcast 7000 ft
Dew Point 41 °F
Humidity 71%
Rainfall 0.00 in
Snow Depth Not available.
UV 1 out of 12
Pollen 1.00 out of 12
Air Quality Not available.
Flu Activity Sporadic
METAR KLHX 281353Z AUTO 01013KT 10SM OVC070 10/05 A3032 RMK AO2 SLP245 T01000050

More Conditions Fewer Conditions

Pressure 30.26 in
Visibility 10.0 miles
Clouds Overcast 7000 ft
Dew Point 41 °F
Humidity 71%
Rainfall 0.00 in
Snow Depth Not available.
UV 1 out of 12
Pollen 1.00 out of 12
Air Quality Not available.
Flu Activity Sporadic
METAR KLHX 281353Z AUTO 01013KT 10SM OVC070 10/05 A3032 RMK AO2 SLP245 T01000050

More Conditions Fewer Conditions

10-Day Weather Forecast

Almanac

Astronomy

Apr. 28, 2015 Rise Set
Actual Time
Civil Twilight
Nautical Twilight
Astronomical Twilight
Moon
Length of Visible Light
Length of Day
Tomorrow will be .
, % of the Moon is Illuminated

Today's Extremes

State Highs State Lows

Community

WunderPhotos

Upload Photos

1,817,653 photos uploaded!

WunderBlogs® & News

Nearby

Air Quality

  Air Quality AQ Index Pollutant
Not available.

Snow Depth

Station Depth Elevation

Earthquake Activity

City Distance Mag. Time & Date
Minimum magnitude displayed is 2.5.

Coastal Water Temperatures

Place Temperature

Stations

Nearby Weather Stations

Station Location Temp. Windchill Dew Point Humidity Wind Precip. Elev Updated Type